createdAt,value
2022-12-11T00:00:55.792Z,99406.80
2022-12-11T00:06:17.969Z,99398.42
2022-12-11T00:11:21.619Z,99393.98
2022-12-11T00:16:27.043Z,99383.58
2022-12-11T00:21:30.096Z,99384.93
2022-12-11T00:26:32.529Z,99378.43
2022-12-11T00:31:35.084Z,99384.39
2022-12-11T00:36:38.399Z,99380.63
2022-12-11T00:41:40.861Z,99383.17
2022-12-11T00:46:43.346Z,99385.73
2022-12-11T00:51:45.826Z,99384.86
2022-12-11T00:56:48.322Z,99387.75
2022-12-11T01:01:50.798Z,99387.39
2022-12-11T01:06:53.305Z,99390.11
2022-12-11T01:11:55.846Z,99387.17
2022-12-11T01:16:58.426Z,99380.51
2022-12-11T01:22:01.076Z,99377.42
2022-12-11T01:27:04.526Z,99373.15
2022-12-11T01:32:07.006Z,99364.77
2022-12-11T01:37:09.504Z,99364.95
2022-12-11T01:42:18.485Z,99365.48
2022-12-11T01:47:20.948Z,99372.30
2022-12-11T01:52:23.504Z,99375.56
2022-12-11T01:57:26.034Z,99369.41
2022-12-11T02:02:30.856Z,99363.75
2022-12-11T02:07:40.444Z,99359.11
2022-12-11T02:12:58.391Z,99350.91
2022-12-11T02:18:24.017Z,99348.20
2022-12-11T02:23:43.988Z,99349.19
2022-12-11T02:28:55.718Z,99345.94
2022-12-11T02:34:03.219Z,99353.59
2022-12-11T02:39:09.106Z,99355.79
2022-12-11T02:44:15.900Z,99348.27
2022-12-11T02:49:20.604Z,99339.42
2022-12-11T02:54:29.641Z,99328.01
2022-12-11T02:59:38.049Z,99327.14
2022-12-11T03:04:41.186Z,99329.00
2022-12-11T03:09:46.353Z,99319.61
2022-12-11T03:14:49.676Z,99321.16
2022-12-11T03:19:56.223Z,99319.42
2022-12-11T03:24:59.664Z,99321.46
2022-12-11T03:30:06.457Z,99316.80
2022-12-11T03:35:16.651Z,99307.37
2022-12-11T03:40:21.060Z,99302.71
2022-12-11T03:45:25.816Z,99304.21
2022-12-11T03:50:31.706Z,99295.15
2022-12-11T03:55:37.642Z,99298.52
2022-12-11T04:00:40.188Z,99296.98
2022-12-11T04:05:47.069Z,99286.94
2022-12-11T04:10:53.634Z,99283.73
2022-12-11T04:15:56.154Z,99290.84
2022-12-11T04:21:01.583Z,99289.09
2022-12-11T04:26:07.545Z,99285.97
2022-12-11T04:31:15.558Z,99285.45
2022-12-11T04:36:18.204Z,99282.02
2022-12-11T04:41:20.675Z,99289.84
2022-12-11T04:46:24.507Z,99287.13
2022-12-11T04:51:28.710Z,99285.84
2022-12-11T04:56:31.321Z,99287.06
2022-12-11T05:01:33.866Z,99286.40
2022-12-11T05:06:36.408Z,99285.87
2022-12-11T05:11:39.272Z,99275.48
2022-12-11T05:16:41.726Z,99272.39
2022-12-11T05:21:44.192Z,99274.75
2022-12-11T05:26:46.714Z,99273.74
2022-12-11T05:31:49.183Z,99269.49
2022-12-11T05:36:51.663Z,99270.84
2022-12-11T05:41:54.133Z,99270.31
2022-12-11T05:46:56.714Z,99270.30
2022-12-11T05:51:59.252Z,99277.77
2022-12-11T05:57:01.736Z,99279.13
2022-12-11T06:02:04.324Z,99285.95
2022-12-11T06:07:06.901Z,99283.77
2022-12-11T06:12:09.365Z,99281.55
2022-12-11T06:17:11.819Z,99277.82
2022-12-11T06:22:14.278Z,99271.36
2022-12-11T06:27:16.847Z,99269.70
2022-12-11T06:32:19.292Z,99270.91
2022-12-11T06:37:21.774Z,99272.61
2022-12-11T06:42:24.225Z,99272.98
2022-12-11T06:47:27.542Z,99271.63
2022-12-11T06:52:30.011Z,99273.27
2022-12-11T06:57:35.714Z,99269.15
2022-12-11T07:02:38.514Z,99267.42
2022-12-11T07:07:41.131Z,99271.89
2022-12-11T07:12:43.574Z,99264.41
2022-12-11T07:17:46.019Z,99263.73
2022-12-11T07:22:48.502Z,99253.84
2022-12-11T07:27:51.047Z,99254.88
2022-12-11T07:32:53.578Z,99242.81
2022-12-11T07:37:56.029Z,99237.90
2022-12-11T07:42:58.487Z,99244.23
2022-12-11T07:48:00.994Z,99243.23
2022-12-11T07:53:03.539Z,99245.45
2022-12-11T07:58:06.245Z,99247.98
2022-12-11T08:03:08.930Z,99251.53
2022-12-11T08:08:11.394Z,99248.81
2022-12-11T08:13:16.114Z,99252.60
2022-12-11T08:18:18.618Z,99249.36
2022-12-11T08:23:21.066Z,99245.78
2022-12-11T08:28:23.581Z,99246.81
2022-12-11T08:33:26.699Z,99249.38
2022-12-11T08:38:29.545Z,99241.73
2022-12-11T08:43:33.805Z,99234.41
2022-12-11T08:48:38.017Z,99234.62
2022-12-11T08:53:40.769Z,99230.21
2022-12-11T08:58:46.509Z,99220.67
2022-12-11T09:03:50.262Z,99216.25
2022-12-11T09:08:54.054Z,99221.21
2022-12-11T09:13:57.578Z,99215.58
2022-12-11T09:19:01.325Z,99213.52
2022-12-11T09:24:06.356Z,99207.72
2022-12-11T09:29:13.189Z,99191.35
2022-12-11T09:34:15.710Z,99189.47
2022-12-11T09:39:18.633Z,99176.64
2022-12-11T09:44:26.039Z,99165.41
2022-12-11T09:49:33.403Z,99159.09
2022-12-11T09:54:36.696Z,99156.52
2022-12-11T09:59:44.240Z,99154.31
2022-12-11T10:04:50.637Z,99154.31
2022-12-11T10:09:59.006Z,99148.18
2022-12-11T10:15:16.621Z,99136.98
2022-12-11T10:20:26.837Z,99126.12
2022-12-11T10:25:34.140Z,99126.95
2022-12-11T10:30:39.800Z,99123.89
2022-12-11T10:35:49.663Z,99118.92
2022-12-11T10:40:58.935Z,99113.64
2022-12-11T10:46:01.600Z,99105.79
2022-12-11T10:51:07.068Z,99112.26
2022-12-11T10:56:09.990Z,99102.86
2022-12-11T11:01:16.134Z,99106.10
2022-12-11T11:06:21.778Z,99093.82
2022-12-11T11:11:33.944Z,99086.65
2022-12-11T11:16:39.135Z,99070.80
2022-12-11T11:21:49.956Z,99062.99
2022-12-11T11:32:21.808Z,99053.29
2022-12-11T11:37:33.713Z,99054.96
2022-12-11T11:42:49.293Z,99057.16
2022-12-11T11:48:07.744Z,99045.90
2022-12-11T11:53:25.880Z,99042.01
2022-12-11T11:58:39.126Z,99036.39
2022-12-11T12:03:41.973Z,99033.85
2022-12-11T12:08:51.823Z,99035.23
2022-12-11T12:14:51.026Z,99030.66
2022-12-11T12:19:56.391Z,99027.08
2022-12-11T12:25:10.627Z,99015.16
2022-12-11T12:30:22.063Z,99010.41
2022-12-11T12:35:29.619Z,99009.89
2022-12-11T12:40:39.632Z,99002.91
2022-12-11T12:45:53.911Z,98994.73
2022-12-11T12:50:57.204Z,98991.16
2022-12-11T12:56:02.547Z,98984.34
2022-12-11T13:01:24.815Z,98978.36
2022-12-11T13:06:31.015Z,98970.33
2022-12-11T13:11:34.662Z,98969.14
2022-12-11T13:16:39.976Z,98963.02
2022-12-11T13:21:42.832Z,98965.39
2022-12-11T13:26:45.514Z,98960.28
2022-12-11T13:31:58.680Z,98957.39
2022-12-11T13:37:03.872Z,98950.40
2022-12-11T13:42:20.259Z,98954.33
2022-12-11T13:47:23.927Z,98952.62
2022-12-11T13:52:27.615Z,98948.35
2022-12-11T13:57:30.258Z,98944.13
2022-12-11T14:02:38.760Z,98941.56
2022-12-11T14:07:46.645Z,98936.98
2022-12-11T14:12:57.048Z,98931.87
2022-12-11T14:18:00.646Z,98926.77
2022-12-11T14:23:07.229Z,98918.09
2022-12-11T14:28:16.674Z,98909.42
2022-12-11T14:33:23.073Z,98900.73
2022-12-11T14:38:33.374Z,98897.00
2022-12-11T14:43:41.156Z,98895.64
2022-12-11T14:48:57.507Z,98891.56
2022-12-11T14:54:04.463Z,98881.17
2022-12-11T14:59:28.320Z,98879.48
2022-12-11T15:04:34.370Z,98875.05
2022-12-11T15:09:40.501Z,98869.44
2022-12-11T15:14:47.921Z,98865.70
2022-12-11T15:19:55.312Z,98866.04
2022-12-11T15:24:58.075Z,98864.33
2022-12-11T15:30:00.656Z,98857.53
2022-12-11T15:35:24.094Z,98851.06
2022-12-11T15:40:27.753Z,98851.91
2022-12-11T15:45:30.313Z,98848.00
2022-12-11T15:50:32.797Z,98846.13
2022-12-11T15:55:37.683Z,98842.55
2022-12-11T16:00:40.153Z,98837.95
2022-12-11T16:05:42.753Z,98839.66
2022-12-11T16:10:47.037Z,98839.31
2022-12-11T16:15:51.146Z,98835.56
2022-12-11T16:20:53.674Z,98824.34
2022-12-11T16:25:56.125Z,98826.55
2022-12-11T16:30:58.662Z,98818.55
2022-12-11T16:36:01.145Z,98806.64
2022-12-11T16:41:03.825Z,98804.09
2022-12-11T16:46:06.688Z,98810.23
2022-12-11T16:51:09.226Z,98811.74
2022-12-11T16:56:12.249Z,98813.79
2022-12-11T17:01:15.658Z,98806.46
2022-12-11T17:06:18.816Z,98800.67
2022-12-11T17:11:22.940Z,98798.30
2022-12-11T17:16:28.987Z,98799.31
2022-12-11T17:21:31.466Z,98798.95
2022-12-11T17:26:34.874Z,98796.41
2022-12-11T17:31:37.749Z,98793.34
2022-12-11T17:36:40.279Z,98793.83
2022-12-11T17:41:42.783Z,98800.31
2022-12-11T17:46:45.294Z,98792.48
2022-12-11T17:51:47.958Z,98790.46
2022-12-11T17:56:50.947Z,98787.20
2022-12-11T18:01:53.433Z,98778.02
2022-12-11T18:06:56.385Z,98780.23
2022-12-11T18:11:58.941Z,98784.50
2022-12-11T18:17:01.460Z,98780.92
2022-12-11T18:22:03.938Z,98774.95
2022-12-11T18:27:10.144Z,98771.05
2022-12-11T18:32:12.644Z,98772.59
2022-12-11T18:37:15.231Z,98775.83
2022-12-11T18:42:32.864Z,98769.01
2022-12-11T18:47:37.239Z,98759.31
2022-12-11T18:52:39.854Z,98758.45
2022-12-11T18:57:42.306Z,98768.31
2022-12-11T19:02:45.217Z,98763.23
2022-12-11T19:07:47.870Z,98766.11
2022-12-11T19:12:50.374Z,98761.84
2022-12-11T19:17:52.809Z,98762.02
2022-12-11T19:22:55.293Z,98757.09
2022-12-11T19:27:58.155Z,98749.93
2022-12-11T19:33:00.658Z,98745.66
2022-12-11T19:38:03.138Z,98744.81
2022-12-11T19:43:05.716Z,98743.27
2022-12-11T19:48:08.230Z,98738.33
2022-12-11T19:53:10.660Z,98731.85
2022-12-11T19:58:13.531Z,98734.23
2022-12-11T20:03:16.080Z,98743.09
2022-12-11T20:08:43.533Z,98739.84
2022-12-11T20:13:41.582Z,98732.33
2022-12-11T20:18:45.418Z,98727.20
2022-12-11T20:23:48.544Z,98720.05
2022-12-11T20:28:52.915Z,98715.45
2022-12-11T20:33:56.122Z,98718.48
2022-12-11T20:38:59.067Z,98711.31
2022-12-11T20:44:01.710Z,98705.16
2022-12-11T20:49:04.385Z,98702.92
2022-12-11T20:54:07.208Z,98694.88
2022-12-11T20:59:10.569Z,98696.21
2022-12-11T21:04:13.015Z,98696.69
2022-12-11T21:09:18.599Z,98691.54
2022-12-11T21:14:21.136Z,98692.52
2022-12-11T21:19:23.745Z,98678.48
2022-12-11T21:24:29.672Z,98674.34
2022-12-11T21:29:32.230Z,98677.17
2022-12-11T21:34:34.797Z,98673.52
2022-12-11T21:39:39.344Z,98657.05
2022-12-11T21:45:51.816Z,98651.16
2022-12-11T21:50:05.040Z,98638.48
2022-12-11T21:55:07.975Z,98632.60
2022-12-11T22:00:11.088Z,98623.67
2022-12-11T22:05:13.966Z,98617.95
2022-12-11T22:10:16.842Z,98613.42
2022-12-11T22:15:19.483Z,98608.13
2022-12-11T22:20:21.988Z,98612.50
2022-12-11T22:25:24.717Z,98611.73
2022-12-11T22:30:27.243Z,98611.28
2022-12-11T22:35:30.084Z,98611.55
2022-12-11T22:40:33.734Z,98601.91
2022-12-11T22:45:39.552Z,98596.37
2022-12-11T22:50:42.682Z,98594.75
2022-12-11T22:55:45.130Z,98594.17
2022-12-11T23:00:47.571Z,98591.73
2022-12-11T23:05:50.032Z,98588.57
2022-12-11T23:10:52.493Z,98581.50
2022-12-11T23:15:54.994Z,98581.08
2022-12-11T23:20:57.468Z,98580.85
2022-12-11T23:26:00.395Z,98580.44
2022-12-11T23:31:03.090Z,98577.79
2022-12-11T23:36:06.042Z,98578.06
2022-12-11T23:41:11.429Z,98576.79
2022-12-11T23:46:17.320Z,98576.05
2022-12-11T23:51:21.640Z,98582.81
2022-12-11T23:56:26.981Z,98579.15
